createdAt,value
2022-11-29T00:01:59.894Z,29.80
2022-11-29T00:07:01.481Z,29.95
2022-11-29T00:12:12.128Z,31.58
2022-11-29T00:17:13.570Z,28.50
2022-11-29T00:22:15.093Z,30.00
2022-11-29T00:27:16.793Z,29.67
2022-11-29T00:32:18.349Z,29.70
2022-11-29T00:37:19.852Z,31.25
2022-11-29T00:42:21.420Z,31.23
2022-11-29T00:47:23.105Z,29.00
2022-11-29T00:52:24.616Z,31.02
2022-11-29T00:57:26.057Z,33.25
2022-11-29T01:02:27.622Z,30.75
2022-11-29T01:07:29.196Z,32.72
2022-11-29T01:12:30.820Z,33.20
2022-11-29T01:17:35.418Z,33.85
2022-11-29T01:22:38.262Z,32.55
2022-11-29T01:27:39.889Z,33.78
2022-11-29T01:32:41.402Z,32.88
2022-11-29T01:37:42.888Z,33.15
2022-11-29T01:42:44.567Z,34.45
2022-11-29T01:47:47.660Z,33.23
2022-11-29T01:52:49.485Z,32.90
2022-11-29T01:57:51.551Z,32.93
2022-11-29T02:02:59.187Z,34.05
2022-11-29T02:08:02.049Z,32.95
2022-11-29T02:13:32.595Z,33.57
2022-11-29T02:18:36.766Z,33.30
2022-11-29T02:23:50.299Z,33.60
2022-11-29T02:29:11.013Z,34.60
2022-11-29T02:34:46.847Z,32.67
2022-11-29T02:40:10.021Z,32.25
2022-11-29T02:45:20.574Z,31.23
2022-11-29T02:50:25.069Z,32.38
2022-11-29T02:55:57.489Z,30.63
2022-11-29T03:01:11.545Z,30.93
2022-11-29T03:06:40.748Z,31.00
2022-11-29T03:11:51.940Z,31.73
2022-11-29T03:17:32.645Z,32.00
2022-11-29T03:22:54.886Z,30.58
2022-11-29T03:28:14.701Z,32.20
2022-11-29T03:33:27.537Z,31.25
2022-11-29T03:38:41.169Z,31.30
2022-11-29T03:43:53.194Z,33.50
2022-11-29T03:49:02.541Z,30.48
2022-11-29T03:54:10.772Z,32.95
2022-11-29T03:59:14.953Z,32.17
2022-11-29T04:04:31.475Z,30.55
2022-11-29T04:10:09.776Z,31.93
2022-11-29T04:15:33.628Z,33.22
2022-11-29T04:21:03.090Z,32.67
2022-11-29T04:26:42.480Z,30.20
2022-11-29T04:32:02.748Z,31.70
2022-11-29T04:37:35.392Z,34.43
2022-11-29T04:42:53.497Z,33.85
2022-11-29T04:48:09.911Z,33.33
2022-11-29T04:53:11.321Z,33.23
2022-11-29T04:58:21.542Z,34.03
2022-11-29T05:03:53.828Z,32.95
2022-11-29T05:09:15.729Z,35.05
2022-11-29T05:14:43.625Z,34.83
2022-11-29T05:19:51.336Z,35.58
2022-11-29T05:24:58.990Z,34.93
2022-11-29T05:30:03.730Z,35.20
2022-11-29T05:35:26.192Z,34.87
2022-11-29T05:40:39.521Z,35.67
2022-11-29T05:45:50.369Z,35.43
2022-11-29T05:51:09.746Z,34.43
2022-11-29T05:56:39.009Z,34.80
2022-11-29T06:02:05.897Z,32.88
2022-11-29T06:07:19.167Z,34.38
2022-11-29T06:12:23.317Z,35.53
2022-11-29T06:17:38.745Z,35.53
2022-11-29T06:22:55.921Z,35.08
2022-11-29T06:28:09.529Z,37.20
2022-11-29T06:33:22.652Z,36.17
2022-11-29T06:38:30.137Z,37.58
2022-11-29T06:43:31.987Z,36.95
2022-11-29T06:48:41.589Z,36.70
2022-11-29T06:54:10.766Z,35.80
2022-11-29T06:59:22.177Z,35.83
2022-11-29T07:04:46.412Z,35.77
2022-11-29T07:09:53.102Z,37.63
2022-11-29T07:14:54.934Z,36.28
2022-11-29T07:20:10.531Z,38.03
2022-11-29T07:25:17.922Z,35.63
2022-11-29T07:30:22.581Z,37.13
2022-11-29T07:40:40.293Z,37.53
2022-11-29T07:45:42.295Z,37.25
2022-11-29T07:50:45.220Z,36.83
2022-11-29T07:55:48.500Z,38.70
2022-11-29T08:00:50.057Z,39.43
2022-11-29T08:05:51.595Z,36.85
2022-11-29T08:10:53.093Z,36.58
2022-11-29T08:15:54.587Z,36.47
2022-11-29T08:20:56.061Z,39.13
2022-11-29T08:26:01.664Z,37.92
2022-11-29T08:31:06.040Z,38.17
2022-11-29T08:36:16.592Z,36.55
2022-11-29T08:41:18.113Z,38.17
2022-11-29T08:46:19.678Z,37.85
2022-11-29T08:51:21.209Z,38.78
2022-11-29T09:01:44.241Z,37.08
2022-11-29T09:06:49.147Z,38.28
2022-11-29T09:11:50.963Z,39.92
2022-11-29T09:16:52.631Z,38.17
2022-11-29T09:21:54.340Z,38.67
2022-11-29T09:26:55.790Z,39.67
2022-11-29T09:31:57.336Z,38.83
2022-11-29T09:36:59.205Z,38.60
2022-11-29T09:42:09.777Z,40.15
2022-11-29T09:47:31.197Z,38.83
2022-11-29T09:53:05.664Z,39.63
2022-11-29T09:58:13.506Z,39.25
2022-11-29T10:03:29.350Z,39.03
2022-11-29T10:08:36.609Z,39.65
2022-11-29T10:13:44.997Z,38.65
2022-11-29T10:18:51.874Z,36.58
2022-11-29T10:23:57.649Z,39.08
2022-11-29T10:28:59.652Z,40.35
2022-11-29T10:34:07.877Z,37.15
2022-11-29T10:39:20.866Z,38.28
2022-11-29T10:44:24.004Z,38.13
2022-11-29T10:49:28.180Z,38.30
2022-11-29T10:54:41.623Z,37.45
2022-11-29T10:59:58.952Z,38.53
2022-11-29T11:05:01.241Z,35.72
2022-11-29T11:10:21.947Z,37.53
2022-11-29T11:15:29.025Z,39.67
2022-11-29T11:20:33.550Z,39.47
2022-11-29T11:25:38.895Z,41.60
2022-11-29T11:30:40.590Z,38.53
2022-11-29T11:35:42.134Z,37.83
2022-11-29T11:40:44.733Z,38.92
2022-11-29T11:45:53.512Z,41.13
2022-11-29T11:50:58.256Z,36.33
2022-11-29T12:01:11.741Z,33.42
2022-11-29T12:06:38.471Z,36.17
2022-11-29T12:12:00.135Z,35.15
2022-11-29T12:17:32.345Z,37.95
2022-11-29T12:23:07.993Z,37.28
2022-11-29T12:28:19.869Z,36.15
2022-11-29T12:33:31.317Z,35.85
2022-11-29T12:38:59.256Z,34.95
2022-11-29T12:44:29.471Z,35.97
2022-11-29T12:49:45.277Z,35.22
2022-11-29T12:55:13.202Z,35.78
2022-11-29T13:00:20.084Z,35.67
2022-11-29T13:05:56.565Z,34.88
2022-11-29T13:11:08.301Z,39.33
2022-11-29T13:16:47.116Z,38.85
2022-11-29T13:22:02.872Z,40.75
2022-11-29T13:27:06.479Z,41.40
2022-11-29T13:32:15.742Z,41.00
2022-11-29T13:37:33.520Z,42.63
2022-11-29T13:42:52.294Z,41.60
2022-11-29T13:47:55.675Z,40.97
2022-11-29T13:53:11.640Z,40.67
2022-11-29T13:58:17.942Z,41.30
2022-11-29T14:03:28.460Z,42.53
2022-11-29T14:09:16.631Z,41.47
2022-11-29T14:14:25.771Z,42.20
2022-11-29T14:19:35.818Z,43.50
2022-11-29T14:24:37.742Z,45.35
2022-11-29T14:29:53.513Z,44.33
2022-11-29T14:35:04.215Z,43.38
2022-11-29T14:40:26.312Z,42.75
2022-11-29T14:45:35.051Z,42.30
2022-11-29T14:50:39.094Z,43.00
2022-11-29T14:55:42.890Z,41.97
2022-11-29T15:00:47.119Z,41.03
2022-11-29T15:05:56.469Z,40.78
2022-11-29T15:11:04.099Z,42.92
2022-11-29T15:16:22.901Z,42.17
2022-11-29T15:21:45.770Z,40.10
2022-11-29T15:27:02.272Z,41.33
2022-11-29T15:32:05.612Z,40.83
2022-11-29T15:37:13.828Z,40.75
2022-11-29T15:42:15.895Z,42.13
2022-11-29T15:47:26.655Z,40.38
2022-11-29T15:52:37.047Z,44.28
2022-11-29T15:57:43.106Z,42.75
2022-11-29T16:02:54.312Z,40.90
2022-11-29T16:08:00.369Z,44.80
2022-11-29T16:13:25.356Z,44.92
2022-11-29T16:18:27.924Z,41.42
2022-11-29T16:23:37.586Z,43.05
2022-11-29T16:28:44.757Z,42.25
2022-11-29T16:33:49.156Z,41.75
2022-11-29T16:38:59.410Z,41.72
2022-11-29T16:44:03.505Z,40.53
2022-11-29T16:49:32.704Z,43.80
2022-11-29T16:54:34.360Z,41.65
2022-11-29T16:59:38.608Z,43.88
2022-11-29T17:04:40.685Z,44.53
2022-11-29T17:09:42.152Z,43.95
2022-11-29T17:14:43.959Z,45.38
2022-11-29T17:19:45.805Z,45.58
2022-11-29T17:24:48.472Z,46.73
2022-11-29T17:29:50.241Z,44.83
2022-11-29T17:34:51.822Z,46.95
2022-11-29T17:39:53.319Z,43.65
2022-11-29T17:44:54.851Z,46.20
2022-11-29T17:49:56.373Z,44.58
2022-11-29T17:54:58.002Z,44.65
2022-11-29T17:59:59.515Z,44.97
2022-11-29T18:05:01.081Z,44.15
2022-11-29T18:10:02.571Z,42.67
2022-11-29T18:15:04.320Z,45.03
2022-11-29T18:20:06.521Z,45.90
2022-11-29T18:25:37.191Z,46.90
2022-11-29T18:30:29.822Z,45.95
2022-11-29T18:35:31.368Z,44.78
2022-11-29T18:40:32.846Z,45.30
2022-11-29T18:45:36.205Z,47.22
2022-11-29T18:50:37.775Z,43.92
2022-11-29T18:55:39.272Z,42.78
2022-11-29T19:00:40.829Z,46.15
2022-11-29T19:05:50.565Z,46.15
2022-11-29T19:10:52.082Z,46.75
2022-11-29T19:15:54.883Z,47.58
2022-11-29T19:21:08.433Z,44.38
2022-11-29T19:26:15.080Z,45.13
2022-11-29T19:31:18.675Z,44.03
2022-11-29T19:36:23.114Z,46.05
2022-11-29T19:41:30.080Z,43.20
2022-11-29T19:46:34.066Z,43.75
2022-11-29T19:51:36.191Z,43.03
2022-11-29T19:56:38.864Z,43.42
2022-11-29T20:01:42.339Z,43.40
2022-11-29T20:06:44.471Z,44.20
2022-11-29T20:11:45.945Z,44.25
2022-11-29T20:16:47.501Z,44.35
2022-11-29T20:21:49.217Z,43.20
2022-11-29T20:26:51.164Z,44.85
2022-11-29T20:31:52.864Z,45.17
2022-11-29T20:37:07.400Z,43.28
2022-11-29T20:47:40.978Z,42.65
2022-11-29T20:52:49.381Z,48.13
2022-11-29T20:57:51.037Z,44.72
2022-11-29T21:02:52.576Z,44.70
2022-11-29T21:07:54.296Z,46.47
2022-11-29T21:12:56.076Z,46.60
2022-11-29T21:17:57.978Z,44.95
2022-11-29T21:23:21.097Z,45.07
2022-11-29T21:28:28.005Z,41.90
2022-11-29T21:33:29.818Z,44.07
2022-11-29T21:38:31.632Z,41.63
2022-11-29T21:44:04.271Z,41.28
2022-11-29T21:48:54.525Z,42.63
2022-11-29T21:53:55.981Z,40.85
2022-11-29T21:58:57.457Z,42.05
2022-11-29T22:03:59.668Z,39.25
2022-11-29T22:09:01.217Z,41.90
2022-11-29T22:14:14.278Z,39.65
2022-11-29T22:19:21.733Z,41.33
2022-11-29T22:24:25.512Z,41.50
2022-11-29T22:29:27.414Z,43.40
2022-11-29T22:34:29.047Z,40.75
2022-11-29T22:39:30.505Z,40.70
2022-11-29T22:44:31.991Z,40.03
2022-11-29T22:49:34.323Z,41.10
2022-11-29T22:54:35.764Z,39.50
2022-11-29T22:59:37.254Z,40.15
2022-11-29T23:04:38.710Z,42.05
2022-11-29T23:09:40.184Z,43.10
2022-11-29T23:14:41.681Z,41.88
2022-11-29T23:19:43.112Z,41.67
2022-11-29T23:24:44.679Z,42.90
2022-11-29T23:29:46.397Z,41.78
2022-11-29T23:34:48.115Z,43.22
2022-11-29T23:39:49.755Z,43.35
2022-11-29T23:44:51.210Z,45.40
2022-11-29T23:49:52.681Z,43.65
2022-11-29T23:54:54.244Z,41.63
2022-11-29T23:59:56.553Z,45.45
